Time;durP1;ratioP1;P1;durP2;ratioP2;P2;SDS_P1;SDS_P2;PMS_P1;PMS_P2;Temp;Humidity;BMP_temperature;BMP_pressure;BME280_temperature;BME280_humidity;BME280_pressure;Samples;Min_cycle;Max_cycle;Signal;HPM_P1;HPM_P2
2023/03/14 00:00:48;;;;;;;;;;;;;;;;;;2210346;67;1635;-26
2023/03/14 00:03:18;;;;;;;;;;;;;;;;;;2209303;67;1926;-26
2023/03/14 00:05:48;;;;;;;;;;;;;;;;;;2209640;67;1260;-26
2023/03/14 00:08:21;;;;;;;;;;;;;;;;;;2210299;67;1226;-26
2023/03/14 00:10:51;;;;;;;;;;;;;;;;;;2209257;59;1982;-26
2023/03/14 00:13:21;;;;;;;;;;;;;;;;;;2210094;67;1175;-26
2023/03/14 00:15:54;;;;;;;;;;;;;;;;;;2210033;67;1319;-26
2023/03/14 00:18:25;;;;;;;;;;;;;;;;;;2209109;67;1499;-26
2023/03/14 00:20:57;;;;;;;;;;;;;;;;;;2209478;67;1294;-26
2023/03/14 00:23:31;;;;;;;;;;;;;;;;;;2209944;66;1940;-27
2023/03/14 00:26:02;;;;;;;;;;;;;;;;;;2209946;67;1643;-26
2023/03/14 00:28:33;;;;;;;;;;;;;;;;;;2208230;67;1698;-27
2023/03/14 00:31:03;;;;;;;;;;;;;;;;;;2209529;67;1280;-27
2023/03/14 00:33:34;;;;;;;;;;;;;;;;;;2209142;67;1355;-27
2023/03/14 00:36:08;;;;;;;;;;;;;;;;;;2209328;67;1101;-27
2023/03/14 00:38:39;;;;;;;;;;;;;;;;;;2210797;67;1468;-27
2023/03/14 00:41:11;;;;;;;;;;;;;;;;;;2209015;67;1320;-28
2023/03/14 00:43:42;;;;;;;;;;;;;;;;;;2209632;67;1940;-27
2023/03/14 00:46:12;;;;;;;;;;;;;;;;;;2210120;67;1231;-27
2023/03/14 00:48:44;;;;;;;;;;;;;;;;;;2208947;67;1694;-28
2023/03/14 00:51:15;;;;;;;;;;;;;;;;;;2209471;67;1178;-28
2023/03/14 00:53:45;;;;;;;;;;;;;;;;;;2209750;67;1983;-27
2023/03/14 00:56:15;;;;;;;;;;;;;;;;;;2210389;67;1842;-28
2023/03/14 00:58:45;;;;;;;;;;;;;;;;;;2210998;67;1204;-28
2023/03/14 01:01:16;;;;;;;;;;;;;;;;;;2211252;67;1470;-28
2023/03/14 01:03:47;;;;;;;;;;;;;;;;;;2210473;59;1937;-28
2023/03/14 01:06:19;;;;;;;;;;;;;;;;;;2209983;67;2412;-28
2023/03/14 01:08:50;;;;;;;;;;;;;;;;;;2210536;67;1844;-28
2023/03/14 01:11:22;;;;;;;;;;;;;;;;;;2208854;59;1413;-27
2023/03/14 01:13:52;;;;;;;;;;;;;;;;;;2210233;67;1266;-27
2023/03/14 01:16:23;;;;;;;;;;;;;;;;;;2208743;67;1154;-27
2023/03/14 01:18:56;;;;;;;;;;;;;;;;;;2210075;67;1268;-27
2023/03/14 01:21:28;;;;;;;;;;;;;;;;;;2208531;67;1363;-27
2023/03/14 01:23:59;;;;;;;;;;;;;;;;;;2209447;58;1927;-27
2023/03/14 01:26:30;;;;;;;;;;;;;;;;;;2209038;67;1327;-27
2023/03/14 01:29:01;;;;;;;;;;;;;;;;;;2209568;66;1151;-27
2023/03/14 01:31:31;;;;;;;;;;;;;;;;;;2209892;67;1459;-27
2023/03/14 01:34:01;;;;;;;;;;;;;;;;;;2209244;67;1138;-27
2023/03/14 01:36:32;;;;;;;;;;;;;;;;;;2209790;67;1136;-27
2023/03/14 01:39:02;;;;;;;;;;;;;;;;;;2208741;67;1795;-27
2023/03/14 01:41:32;;;;;;;;;;;;;;;;;;2210046;67;1251;-27
2023/03/14 01:44:02;;;;;;;;;;;;;;;;;;2209365;67;1987;-27
2023/03/14 01:46:37;;;;;;;;;;;;;;;;;;2209074;67;1336;-27
2023/03/14 01:49:16;;;;;;;;;;;;;;;;;;2210765;66;1125;-27
2023/03/14 01:51:47;;;;;;;;;;;;;;;;;;2209223;67;1228;-27
2023/03/14 01:54:23;;;;;;;;;;;;;;;;;;2209589;67;1372;-27
2023/03/14 01:56:56;;;;;;;;;;;;;;;;;;2209010;67;1345;-27
2023/03/14 01:59:27;;;;;;;;;;;;;;;;;;2208971;67;2061;-27
2023/03/14 02:01:58;;;;;;;;;;;;;;;;;;2209317;67;1937;-27
2023/03/14 02:04:32;;;;;;;;;;;;;;;;;;2209283;66;1221;-27
2023/03/14 02:07:12;;;;;;;;;;;;;;;;;;2209067;66;1853;-27
2023/03/14 02:09:42;;;;;;;;;;;;;;;;;;2208236;67;1626;-27
2023/03/14 02:12:14;;;;;;;;;;;;;;;;;;2208492;59;1192;-27
2023/03/14 02:14:47;;;;;;;;;;;;;;;;;;2208768;66;1886;-27
2023/03/14 02:17:19;;;;;;;;;;;;;;;;;;2209647;67;1407;-27
2023/03/14 02:20:08;;;;;;;;;;;;;;;;;;2209467;67;1272;-27
2023/03/14 02:22:40;;;;;;;;;;;;;;;;;;2208340;67;1996;-27
2023/03/14 02:25:22;;;;;;;;;;;;;;;;;;2209455;59;2784;-27
2023/03/14 02:27:53;;;;;;;;;;;;;;;;;;2209842;67;1309;-27
2023/03/14 02:30:25;;;;;;;;;;;;;;;;;;2209297;67;1631;-27
2023/03/14 02:32:58;;;;;;;;;;;;;;;;;;2209606;67;1312;-26
2023/03/14 02:35:31;;;;;;;;;;;;;;;;;;2211902;66;1287;-26
2023/03/14 02:38:22;;;;;;;;;;;;;;;;;;2209817;67;1692;-27
2023/03/14 02:40:52;;;;;;;;;;;;;;;;;;2209658;67;1224;-26
2023/03/14 02:43:22;;;;;;;;;;;;;;;;;;2209156;67;1933;-26
2023/03/14 02:45:53;;;;;;;;;;;;;;;;;;2208934;67;1303;-26
2023/03/14 02:48:23;;;;;;;;;;;;;;;;;;2208844;67;1322;-26
2023/03/14 02:50:57;;;;;;;;;;;;;;;;;;2209158;67;1226;-27
2023/03/14 02:53:29;;;;;;;;;;;;;;;;;;2208932;67;1329;-26
2023/03/14 02:56:00;;;;;;;;;;;;;;;;;;2208031;67;1673;-26
2023/03/14 02:58:30;;;;;;;;;;;;;;;;;;2208531;67;1654;-26
2023/03/14 03:01:00;;;;;;;;;;;;;;;;;;2209659;67;1935;-26
2023/03/14 03:03:31;;;;;;;;;;;;;;;;;;2209539;59;2123;-26
2023/03/14 03:06:01;;;;;;;;;;;;;;;;;;2209654;67;1280;-27
2023/03/14 03:08:32;;;;;;;;;;;;;;;;;;2209244;66;1603;-26
2023/03/14 03:11:03;;;;;;;;;;;;;;;;;;2208230;59;1265;-27
2023/03/14 03:13:34;;;;;;;;;;;;;;;;;;2209838;66;2179;-26
2023/03/14 03:16:05;;;;;;;;;;;;;;;;;;2210420;67;1834;-26
2023/03/14 03:18:35;;;;;;;;;;;;;;;;;;2209085;67;1243;-26
2023/03/14 03:21:07;;;;;;;;;;;;;;;;;;2208931;67;1313;-26
2023/03/14 03:23:38;;;;;;;;;;;;;;;;;;2209599;67;1948;-27
2023/03/14 03:26:10;;;;;;;;;;;;;;;;;;2210778;67;2009;-26
2023/03/14 03:28:40;;;;;;;;;;;;;;;;;;2209675;67;1734;-26
2023/03/14 03:31:11;;;;;;;;;;;;;;;;;;2208846;67;1849;-26
2023/03/14 03:33:41;;;;;;;;;;;;;;;;;;2209815;67;1254;-26
2023/03/14 03:36:12;;;;;;;;;;;;;;;;;;2210084;67;1304;-26
2023/03/14 03:38:42;;;;;;;;;;;;;;;;;;2209993;67;1785;-26
2023/03/14 03:41:12;;;;;;;;;;;;;;;;;;2209647;67;1586;-26
2023/03/14 03:43:43;;;;;;;;;;;;;;;;;;2209155;67;1935;-26
2023/03/14 03:46:13;;;;;;;;;;;;;;;;;;2209989;67;1310;-26
2023/03/14 03:48:43;;;;;;;;;;;;;;;;;;2209632;67;1374;-26
2023/03/14 03:51:14;;;;;;;;;;;;;;;;;;2209849;67;1262;-26
2023/03/14 03:53:45;;;;;;;;;;;;;;;;;;2209358;67;1153;-26
2023/03/14 03:56:15;;;;;;;;;;;;;;;;;;2210034;59;1962;-26
2023/03/14 03:58:45;;;;;;;;;;;;;;;;;;2210519;67;1691;-26
2023/03/14 04:01:15;;;;;;;;;;;;;;;;;;2210802;67;1225;-26
2023/03/14 04:03:46;;;;;;;;;;;;;;;;;;2210902;67;1992;-26
2023/03/14 04:06:16;;;;;;;;;;;;;;;;;;2209748;59;1675;-26
2023/03/14 04:08:46;;;;;;;;;;;;;;;;;;2210537;67;1300;-26
2023/03/14 04:11:16;;;;;;;;;;;;;;;;;;2210064;59;1488;-26
2023/03/14 04:13:47;;;;;;;;;;;;;;;;;;2210136;59;2186;-26
2023/03/14 04:16:18;;;;;;;;;;;;;;;;;;2210200;67;1634;-26
2023/03/14 04:18:49;;;;;;;;;;;;;;;;;;2211517;67;1765;-26
2023/03/14 04:21:19;;;;;;;;;;;;;;;;;;2211742;67;1682;-26
2023/03/14 04:23:50;;;;;;;;;;;;;;;;;;2213911;59;1940;-26
2023/03/14 04:26:20;;;;;;;;;;;;;;;;;;2209366;67;1454;-26
2023/03/14 04:28:51;;;;;;;;;;;;;;;;;;2209708;67;1359;-26
2023/03/14 04:31:21;;;;;;;;;;;;;;;;;;2209448;60;1662;-26
2023/03/14 04:33:51;;;;;;;;;;;;;;;;;;2207913;67;1117;-26
2023/03/14 04:36:21;;;;;;;;;;;;;;;;;;2210013;67;1353;-26
2023/03/14 04:38:52;;;;;;;;;;;;;;;;;;2209204;67;1325;-26
2023/03/14 04:41:22;;;;;;;;;;;;;;;;;;2210085;67;1294;-26
2023/03/14 04:43:52;;;;;;;;;;;;;;;;;;2208381;67;1930;-26
2023/03/14 04:46:23;;;;;;;;;;;;;;;;;;2210081;59;1053;-26
2023/03/14 04:48:53;;;;;;;;;;;;;;;;;;2209763;67;1515;-26
2023/03/14 04:51:27;;;;;;;;;;;;;;;;;;2208542;67;1373;-26
2023/03/14 04:53:57;;;;;;;;;;;;;;;;;;2208521;67;1463;-26
2023/03/14 04:56:27;;;;;;;;;;;;;;;;;;2210610;67;1825;-26
2023/03/14 04:58:58;;;;;;;;;;;;;;;;;;2209364;67;1750;-26
2023/03/14 05:01:28;;;;;;;;;;;;;;;;;;2208196;67;1255;-26
2023/03/14 05:04:02;;;;;;;;;;;;;;;;;;2209261;67;1935;-26
2023/03/14 05:06:32;;;;;;;;;;;;;;;;;;2209926;67;1903;-26
2023/03/14 05:09:04;;;;;;;;;;;;;;;;;;2209680;67;1302;-26
2023/03/14 05:11:35;;;;;;;;;;;;;;;;;;2209528;59;1896;-26
2023/03/14 05:14:05;;;;;;;;;;;;;;;;;;2210833;66;1399;-26
2023/03/14 05:16:35;;;;;;;;;;;;;;;;;;2212658;66;1676;-26
2023/03/14 05:19:05;;;;;;;;;;;;;;;;;;2209085;67;2080;-26
2023/03/14 05:21:35;;;;;;;;;;;;;;;;;;2209918;67;1814;-26
2023/03/14 05:24:06;;;;;;;;;;;;;;;;;;2208529;67;1941;-26
2023/03/14 05:26:36;;;;;;;;;;;;;;;;;;2208318;59;1123;-26
2023/03/14 05:29:07;;;;;;;;;;;;;;;;;;2210415;59;1664;-25
2023/03/14 05:31:37;;;;;;;;;;;;;;;;;;2209589;67;1172;-25
2023/03/14 05:34:07;;;;;;;;;;;;;;;;;;2208720;67;1117;-25
2023/03/14 05:36:38;;;;;;;;;;;;;;;;;;2208904;67;1400;-25
2023/03/14 05:39:08;;;;;;;;;;;;;;;;;;2211920;66;1097;-25
2023/03/14 05:41:38;;;;;;;;;;;;;;;;;;2209590;67;1464;-25
2023/03/14 05:44:08;;;;;;;;;;;;;;;;;;2209360;67;1980;-25
2023/03/14 05:46:41;;;;;;;;;;;;;;;;;;2208611;59;1218;-25
2023/03/14 05:49:11;;;;;;;;;;;;;;;;;;2207624;67;1073;-26
2023/03/14 05:51:42;;;;;;;;;;;;;;;;;;2208880;67;1882;-25
2023/03/14 05:54:12;;;;;;;;;;;;;;;;;;2209727;60;1340;-25
2023/03/14 05:56:42;;;;;;;;;;;;;;;;;;2208710;67;1099;-25
2023/03/14 05:59:14;;;;;;;;;;;;;;;;;;2208893;67;1194;-25
2023/03/14 06:01:44;;;;;;;;;;;;;;;;;;2209591;67;1923;-25
2023/03/14 06:04:14;;;;;;;;;;;;;;;;;;2210155;59;2047;-26
2023/03/14 06:06:45;;;;;;;;;;;;;;;;;;2209807;67;1275;-25
2023/03/14 06:09:15;;;;;;;;;;;;;;;;;;2209335;67;2145;-25
2023/03/14 06:11:46;;;;;;;;;;;;;;;;;;2208669;59;1416;-25
2023/03/14 06:14:16;;;;;;;;;;;;;;;;;;2209394;58;1074;-25
2023/03/14 06:16:48;;;;;;;;;;;;;;;;;;2209855;67;1458;-26
2023/03/14 06:19:19;;;;;;;;;;;;;;;;;;2209345;67;1758;-25
2023/03/14 06:21:49;;;;;;;;;;;;;;;;;;2208798;67;1194;-25
2023/03/14 06:24:19;;;;;;;;;;;;;;;;;;2209262;67;2000;-26
2023/03/14 06:26:49;;;;;;;;;;;;;;;;;;2209765;67;1093;-25
2023/03/14 06:29:19;;;;;;;;;;;;;;;;;;2209414;67;1088;-25
2023/03/14 06:31:50;;;;;;;;;;;;;;;;;;2208193;59;2127;-26
2023/03/14 06:34:20;;;;;;;;;;;;;;;;;;2207907;59;2077;-25
2023/03/14 06:36:50;;;;;;;;;;;;;;;;;;2209801;67;1380;-25
2023/03/14 06:39:21;;;;;;;;;;;;;;;;;;2209808;67;1469;-25
2023/03/14 06:41:51;;;;;;;;;;;;;;;;;;2210584;67;1398;-26
2023/03/14 06:44:21;;;;;;;;;;;;;;;;;;2210138;67;1956;-25
2023/03/14 06:46:51;;;;;;;;;;;;;;;;;;2212586;66;1688;-26
2023/03/14 06:49:21;;;;;;;;;;;;;;;;;;2210532;67;1219;-26
2023/03/14 06:51:52;;;;;;;;;;;;;;;;;;2210051;67;1641;-26
2023/03/14 06:54:22;;;;;;;;;;;;;;;;;;2210586;67;1236;-26
2023/03/14 06:56:52;;;;;;;;;;;;;;;;;;2209420;67;1228;-25
2023/03/14 06:59:22;;;;;;;;;;;;;;;;;;2209854;67;1264;-26
2023/03/14 07:01:52;;;;;;;;;;;;;;;;;;2210706;67;1235;-25
2023/03/14 07:04:23;;;;;;;;;;;;;;;;;;2210008;67;1941;-26
2023/03/14 07:06:54;;;;;;;;;;;;;;;;;;2209479;62;1637;-26
2023/03/14 07:09:24;;;;;;;;;;;;;;;;;;2209940;59;1406;-25
2023/03/14 07:11:54;;;;;;;;;;;;;;;;;;2211625;58;1387;-25
2023/03/14 07:14:25;;;;;;;;;;;;;;;;;;2209424;67;1894;-26
2023/03/14 07:16:55;;;;;;;;;;;;;;;;;;2210144;67;1468;-25
2023/03/14 07:19:25;;;;;;;;;;;;;;;;;;2210330;67;2129;-26
2023/03/14 07:21:55;;;;;;;;;;;;;;;;;;2210080;67;1937;-25
2023/03/14 07:24:26;;;;;;;;;;;;;;;;;;2210761;59;1124;-25
2023/03/14 07:26:56;;;;;;;;;;;;;;;;;;2209970;67;1332;-26
2023/03/14 07:29:26;;;;;;;;;;;;;;;;;;2209714;67;1990;-25
2023/03/14 07:31:56;;;;;;;;;;;;;;;;;;2209625;67;1246;-26
2023/03/14 07:34:26;;;;;;;;;;;;;;;;;;2210055;67;1257;-25
2023/03/14 07:36:57;;;;;;;;;;;;;;;;;;2209990;67;1035;-25
2023/03/14 07:39:27;;;;;;;;;;;;;;;;;;2210346;67;2251;-25
2023/03/14 07:41:57;;;;;;;;;;;;;;;;;;2209291;59;1928;-26
2023/03/14 07:44:27;;;;;;;;;;;;;;;;;;2209817;67;1812;-26
2023/03/14 07:46:57;;;;;;;;;;;;;;;;;;2209370;67;1227;-25
2023/03/14 07:49:28;;;;;;;;;;;;;;;;;;2211351;67;1442;-25
2023/03/14 07:51:58;;;;;;;;;;;;;;;;;;2208963;67;1291;-25
2023/03/14 07:54:29;;;;;;;;;;;;;;;;;;2209511;67;1986;-25
2023/03/14 07:57:00;;;;;;;;;;;;;;;;;;2209970;67;1253;-25
2023/03/14 07:59:30;;;;;;;;;;;;;;;;;;2211198;67;1221;-25
2023/03/14 08:02:00;;;;;;;;;;;;;;;;;;2210213;67;1943;-25
2023/03/14 08:04:32;;;;;;;;;;;;;;;;;;2209226;67;1169;-25
2023/03/14 08:07:02;;;;;;;;;;;;;;;;;;2210237;67;1346;-25
2023/03/14 08:09:32;;;;;;;;;;;;;;;;;;2211530;67;1796;-25
2023/03/14 08:12:06;;;;;;;;;;;;;;;;;;2210287;59;1955;-25
2023/03/14 08:14:36;;;;;;;;;;;;;;;;;;2211694;67;1689;-25
2023/03/14 08:17:08;;;;;;;;;;;;;;;;;;2211833;67;1260;-25
2023/03/14 08:19:38;;;;;;;;;;;;;;;;;;2211372;67;1288;-25
2023/03/14 08:22:08;;;;;;;;;;;;;;;;;;2209898;67;2008;-25
2023/03/14 08:24:38;;;;;;;;;;;;;;;;;;2210455;67;1647;-25
2023/03/14 08:27:09;;;;;;;;;;;;;;;;;;2208861;67;1192;-24
2023/03/14 08:29:41;;;;;;;;;;;;;;;;;;2209396;67;1240;-25
2023/03/14 08:32:12;;;;;;;;;;;;;;;;;;2207687;59;2298;-24
2023/03/14 08:34:43;;;;;;;;;;;;;;;;;;2214506;53;3762;-20
2023/03/14 08:37:13;;;;;;;;;;;;;;;;;;2216482;66;1263;-20
2023/03/14 08:39:46;;;;;;;;;;;;;;;;;;2218057;66;1170;-20
2023/03/14 08:42:17;;;;;;;;;;;;;;;;;;2216798;59;3693;-20
2023/03/14 08:44:48;;;;;;;;;;;;;;;;;;2217778;66;1661;-20
2023/03/14 08:47:18;;;;;;;;;;;;;;;;;;2217505;66;1780;-20
2023/03/14 08:49:49;;;;;;;;;;;;;;;;;;2216774;66;1140;-20
2023/03/14 08:52:19;;;;;;;;;;;;;;;;;;2217626;59;1724;-20
2023/03/14 08:54:49;;;;;;;;;;;;;;;;;;2220124;66;1588;-20
2023/03/14 08:57:21;;;;;;;;;;;;;;;;;;2217591;66;1911;-20
2023/03/14 08:59:51;;;;;;;;;;;;;;;;;;2216907;66;1357;-20
2023/03/14 09:02:23;;;;;;;;;;;;;;;;;;2217642;66;1954;-20
2023/03/14 09:04:53;;;;;;;;;;;;;;;;;;2216755;66;1207;-20
2023/03/14 09:07:23;;;;;;;;;;;;;;;;;;2217577;66;1104;-19
2023/03/14 09:09:54;;;;;;;;;;;;;;;;;;2216784;66;1171;-20
2023/03/14 09:12:24;;;;;;;;;;;;;;;;;;2217009;59;1123;-20
2023/03/14 09:14:54;;;;;;;;;;;;;;;;;;2217136;59;1254;-20
2023/03/14 09:17:25;;;;;;;;;;;;;;;;;;2216661;66;1063;-20
2023/03/14 09:19:55;;;;;;;;;;;;;;;;;;2216664;66;1232;-20
2023/03/14 09:22:25;;;;;;;;;;;;;;;;;;2217852;66;1949;-20
2023/03/14 09:24:59;;;;;;;;;;;;;;;;;;2216889;66;1303;-19
2023/03/14 09:27:29;;;;;;;;;;;;;;;;;;2217371;66;1157;-19
2023/03/14 09:30:00;;;;;;;;;;;;;;;;;;2216896;66;1360;-20
2023/03/14 09:32:31;;;;;;;;;;;;;;;;;;2218031;66;1096;-20
2023/03/14 09:35:01;;;;;;;;;;;;;;;;;;2217005;59;1402;-19
2023/03/14 09:37:32;;;;;;;;;;;;;;;;;;2216986;59;1081;-19
2023/03/14 09:40:09;;;;;;;;;;;;;;;;;;2219324;66;1261;-20
2023/03/14 09:42:40;;;;;;;;;;;;;;;;;;2216986;66;2022;-20
2023/03/14 09:45:18;;;;;;;;;;;;;;;;;;2216978;66;1436;-19
2023/03/14 09:47:49;;;;;;;;;;;;;;;;;;2217468;66;1240;-19
2023/03/14 09:50:19;;;;;;;;;;;;;;;;;;2217150;66;1066;-19
2023/03/14 09:52:52;;;;;;;;;;;;;;;;;;2216650;66;1248;-19
2023/03/14 09:55:22;;;;;;;;;;;;;;;;;;2216845;66;1760;-19
2023/03/14 09:57:56;;;;;;;;;;;;;;;;;;2217313;66;1253;-19
2023/03/14 10:00:28;;;;;;;;;;;;;;;;;;2218853;66;1337;-19
2023/03/14 10:03:17;;;;;;;;;;;;;;;;;;2216700;66;1907;-20
2023/03/14 10:05:47;;;;;;;;;;;;;;;;;;2217325;66;1254;-19
2023/03/14 10:08:18;;;;;;;;;;;;;;;;;;2216716;66;1210;-19
2023/03/14 10:10:48;;;;;;;;;;;;;;;;;;2219536;58;1747;-19
2023/03/14 10:13:27;;;;;;;;;;;;;;;;;;2216809;66;1304;-19
2023/03/14 10:16:02;;;;;;;;;;;;;;;;;;2216869;66;1210;-19
2023/03/14 10:18:35;;;;;;;;;;;;;;;;;;2217232;66;1119;-19
2023/03/14 10:21:25;;;;;;;;;;;;;;;;;;2220393;66;1609;-19
2023/03/14 10:24:16;;;;;;;;;;;;;;;;;;2217018;66;1899;-19
2023/03/14 10:26:52;;;;;;;;;;;;;;;;;;2214862;66;1568;-28
2023/03/14 10:29:22;;;;;;;;;;;;;;;;;;2216874;66;1136;-19
2023/03/14 10:31:52;;;;;;;;;;;;;;;;;;2217554;66;1232;-26
2023/03/14 10:34:27;;;;;;;;;;;;;;;;;;2216142;59;1116;-19
2023/03/14 10:37:16;;;;;;;;;;;;;;;;;;2219299;66;1348;-19
2023/03/14 10:39:55;;;;;;;;;;;;;;;;;;2216823;66;1132;-24
2023/03/14 10:42:31;;;;;;;;;;;;;;;;;;2217478;59;1902;-19
2023/03/14 10:45:03;;;;;;;;;;;;;;;;;;2219558;66;1338;-19
2023/03/14 10:47:34;;;;;;;;;;;;;;;;;;2216763;66;1107;-19
2023/03/14 10:50:23;;;;;;;;;;;;;;;;;;2216590;66;1423;-19
2023/03/14 10:52:54;;;;;;;;;;;;;;;;;;2214127;59;1260;-17
2023/03/14 10:55:27;;;;;;;;;;;;;;;;;;2216979;59;1123;-17
2023/03/14 10:57:58;;;;;;;;;;;;;;;;;;2217011;66;1219;-17
2023/03/14 11:00:33;;;;;;;;;;;;;;;;;;2217844;66;1607;-17
2023/03/14 11:03:06;;;;;;;;;;;;;;;;;;2217062;66;2361;-17
2023/03/14 11:05:56;;;;;;;;;;;;;;;;;;2216441;66;1089;-17
2023/03/14 11:08:37;;;;;;;;;;;;;;;;;;2216561;59;2074;-17
2023/03/14 11:11:12;;;;;;;;;;;;;;;;;;2216422;66;1825;-17
2023/03/14 11:13:49;;;;;;;;;;;;;;;;;;2217658;66;1226;-17
2023/03/14 11:16:24;;;;;;;;;;;;;;;;;;2216994;66;1074;-17
2023/03/14 11:19:04;;;;;;;;;;;;;;;;;;2217129;66;1322;-17
2023/03/14 11:21:41;;;;;;;;;;;;;;;;;;2216091;66;1700;-17
2023/03/14 11:24:22;;;;;;;;;;;;;;;;;;2215140;66;1933;-17
2023/03/14 11:27:12;;;;;;;;;;;;;;;;;;2216371;66;1102;-17
2023/03/14 11:29:59;;;;;;;;;;;;;;;;;;2216274;59;1216;-17
2023/03/14 11:32:43;;;;;;;;;;;;;;;;;;2216699;66;1161;-17
2023/03/14 11:35:22;;;;;;;;;;;;;;;;;;2216280;59;1196;-18
2023/03/14 11:38:19;;;;;;;;;;;;;;;;;;2216676;66;1211;-17
2023/03/14 11:40:50;;;;;;;;;;;;;;;;;;2216703;66;1674;-17
2023/03/14 11:43:27;;;;;;;;;;;;;;;;;;2216430;66;1892;-17
2023/03/14 11:46:06;;;;;;;;;;;;;;;;;;2217340;66;1178;-17
2023/03/14 11:48:36;;;;;;;;;;;;;;;;;;2217219;66;1172;-17
2023/03/14 11:51:21;;;;;;;;;;;;;;;;;;2217642;66;1128;-17
2023/03/14 11:54:03;;;;;;;;;;;;;;;;;;2217374;66;2150;-17
2023/03/14 11:56:37;;;;;;;;;;;;;;;;;;2216540;66;1223;-17
2023/03/14 11:59:19;;;;;;;;;;;;;;;;;;2216338;59;1737;-17
2023/03/14 12:02:03;;;;;;;;;;;;;;;;;;2219128;66;1740;-18
2023/03/14 12:04:39;;;;;;;;;;;;;;;;;;2216920;66;1998;-17
2023/03/14 12:07:18;;;;;;;;;;;;;;;;;;2216461;66;1142;-17
2023/03/14 12:09:49;;;;;;;;;;;;;;;;;;2216687;66;1106;-17
2023/03/14 12:12:22;;;;;;;;;;;;;;;;;;2218528;66;1112;-18
2023/03/14 12:14:54;;;;;;;;;;;;;;;;;;2217557;66;1209;-17
2023/03/14 12:17:26;;;;;;;;;;;;;;;;;;2218188;66;1236;-17
2023/03/14 12:20:01;;;;;;;;;;;;;;;;;;2217083;66;1253;-17
2023/03/14 12:22:51;;;;;;;;;;;;;;;;;;2215801;66;2002;-17
2023/03/14 12:25:23;;;;;;;;;;;;;;;;;;2216602;66;1197;-17
2023/03/14 12:27:56;;;;;;;;;;;;;;;;;;2217104;66;1208;-17
2023/03/14 12:30:32;;;;;;;;;;;;;;;;;;2216494;66;1065;-17
2023/03/14 12:33:08;;;;;;;;;;;;;;;;;;2217315;58;1274;-17
2023/03/14 12:35:40;;;;;;;;;;;;;;;;;;2217307;66;1090;-17
2023/03/14 12:38:16;;;;;;;;;;;;;;;;;;2216503;66;1410;-17
2023/03/14 12:40:58;;;;;;;;;;;;;;;;;;2217000;66;1127;-17
2023/03/14 12:43:30;;;;;;;;;;;;;;;;;;2216276;59;1923;-17
2023/03/14 12:46:20;;;;;;;;;;;;;;;;;;2216624;66;1351;-18
2023/03/14 12:49:00;;;;;;;;;;;;;;;;;;2219324;66;2000;-17
2023/03/14 12:51:30;;;;;;;;;;;;;;;;;;2217093;59;1107;-17
2023/03/14 12:54:23;;;;;;;;;;;;;;;;;;2216130;66;1407;-17
2023/03/14 12:56:57;;;;;;;;;;;;;;;;;;2216544;66;1997;-17
2023/03/14 12:59:31;;;;;;;;;;;;;;;;;;2217322;66;1118;-17
2023/03/14 13:02:14;;;;;;;;;;;;;;;;;;2216673;66;1209;-18
2023/03/14 13:04:47;;;;;;;;;;;;;;;;;;2216766;66;1805;-17
2023/03/14 13:07:34;;;;;;;;;;;;;;;;;;2216585;66;1219;-17
2023/03/14 13:10:05;;;;;;;;;;;;;;;;;;2214587;59;2004;-17
2023/03/14 13:12:47;;;;;;;;;;;;;;;;;;2219902;66;1327;-17
2023/03/14 13:15:27;;;;;;;;;;;;;;;;;;2216332;66;1201;-17
2023/03/14 13:18:09;;;;;;;;;;;;;;;;;;2216094;66;1274;-17
2023/03/14 13:20:51;;;;;;;;;;;;;;;;;;2215404;66;1196;-17
2023/03/14 13:23:22;;;;;;;;;;;;;;;;;;2215847;66;1940;-17
2023/03/14 13:25:53;;;;;;;;;;;;;;;;;;2216145;66;1793;-17
2023/03/14 13:28:23;;;;;;;;;;;;;;;;;;2215753;66;1119;-17
2023/03/14 13:30:56;;;;;;;;;;;;;;;;;;2216578;59;1287;-17
2023/03/14 13:33:26;;;;;;;;;;;;;;;;;;2216595;59;1337;-18
2023/03/14 13:36:02;;;;;;;;;;;;;;;;;;2216209;66;1353;-17
2023/03/14 13:38:34;;;;;;;;;;;;;;;;;;2217578;66;1204;-17
2023/03/14 13:41:06;;;;;;;;;;;;;;;;;;2216820;66;1100;-17
2023/03/14 13:43:39;;;;;;;;;;;;;;;;;;2216855;66;1948;-17
2023/03/14 13:46:13;;;;;;;;;;;;;;;;;;2216805;66;1127;-17
2023/03/14 13:48:45;;;;;;;;;;;;;;;;;;2216429;66;1120;-17
2023/03/14 13:51:20;;;;;;;;;;;;;;;;;;2216993;66;1695;-17
2023/03/14 13:53:51;;;;;;;;;;;;;;;;;;2216765;66;1241;-19
2023/03/14 13:56:23;;;;;;;;;;;;;;;;;;2216379;66;1216;-17
2023/03/14 13:58:54;;;;;;;;;;;;;;;;;;2217173;66;1297;-17
2023/03/14 14:01:26;;;;;;;;;;;;;;;;;;2216814;66;1831;-17
2023/03/14 14:03:57;;;;;;;;;;;;;;;;;;2215177;66;1998;-16
2023/03/14 14:06:31;;;;;;;;;;;;;;;;;;2216543;66;1226;-17
2023/03/14 14:09:04;;;;;;;;;;;;;;;;;;2216711;66;1794;-17
2023/03/14 14:11:55;;;;;;;;;;;;;;;;;;2216536;66;1205;-17
2023/03/14 14:14:29;;;;;;;;;;;;;;;;;;2216498;66;2307;-17
2023/03/14 14:17:05;;;;;;;;;;;;;;;;;;2217097;66;1247;-18
2023/03/14 14:19:36;;;;;;;;;;;;;;;;;;2216585;66;1116;-17
2023/03/14 14:22:09;;;;;;;;;;;;;;;;;;2216302;66;1844;-17
2023/03/14 14:24:40;;;;;;;;;;;;;;;;;;2216174;66;1972;-17
2023/03/14 14:27:17;;;;;;;;;;;;;;;;;;2215859;59;1297;-17
2023/03/14 14:29:58;;;;;;;;;;;;;;;;;;2216998;66;1411;-17
2023/03/14 14:32:38;;;;;;;;;;;;;;;;;;2217193;66;1297;-19
2023/03/14 14:35:29;;;;;;;;;;;;;;;;;;2215844;59;1731;-17
2023/03/14 14:37:59;;;;;;;;;;;;;;;;;;2215485;66;1221;-17
2023/03/14 14:40:30;;;;;;;;;;;;;;;;;;2218997;66;1099;-17
2023/03/14 14:43:04;;;;;;;;;;;;;;;;;;2216495;66;2006;-17
2023/03/14 14:45:34;;;;;;;;;;;;;;;;;;2217038;66;1406;-17
2023/03/14 14:48:06;;;;;;;;;;;;;;;;;;2212910;66;1944;-17
2023/03/14 14:50:38;;;;;;;;;;;;;;;;;;2216253;66;1263;-17
2023/03/14 14:53:18;;;;;;;;;;;;;;;;;;2216098;66;1258;-18
2023/03/14 14:55:52;;;;;;;;;;;;;;;;;;2216200;66;1117;-17
2023/03/14 14:58:28;;;;;;;;;;;;;;;;;;2215809;66;1670;-17
2023/03/14 15:01:04;;;;;;;;;;;;;;;;;;2216552;66;1165;-17
2023/03/14 15:03:35;;;;;;;;;;;;;;;;;;2216722;66;2005;-17
2023/03/14 15:06:05;;;;;;;;;;;;;;;;;;2217756;66;1160;-17
2023/03/14 15:08:36;;;;;;;;;;;;;;;;;;2216697;66;1846;-17
2023/03/14 15:11:10;;;;;;;;;;;;;;;;;;2217609;66;1120;-18
2023/03/14 15:13:41;;;;;;;;;;;;;;;;;;2216248;66;1369;-18
2023/03/14 15:16:12;;;;;;;;;;;;;;;;;;2216632;66;1138;-17
2023/03/14 15:18:51;;;;;;;;;;;;;;;;;;2217517;66;1572;-26
2023/03/14 15:21:22;;;;;;;;;;;;;;;;;;2215987;66;1126;-17
2023/03/14 15:23:52;;;;;;;;;;;;;;;;;;2216118;66;1996;-17
2023/03/14 15:26:24;;;;;;;;;;;;;;;;;;2216768;66;1113;-17
2023/03/14 15:28:55;;;;;;;;;;;;;;;;;;2217925;66;1255;-19
2023/03/14 15:31:25;;;;;;;;;;;;;;;;;;2217965;66;1283;-19
2023/03/14 15:33:55;;;;;;;;;;;;;;;;;;2216448;66;1220;-19
2023/03/14 15:36:27;;;;;;;;;;;;;;;;;;2217148;66;1210;-19
2023/03/14 15:38:58;;;;;;;;;;;;;;;;;;2219440;66;1370;-19
2023/03/14 15:41:29;;;;;;;;;;;;;;;;;;2217495;66;1029;-19
2023/03/14 15:43:59;;;;;;;;;;;;;;;;;;2217202;66;1944;-19
2023/03/14 15:46:29;;;;;;;;;;;;;;;;;;2217820;66;1155;-19
2023/03/14 15:48:59;;;;;;;;;;;;;;;;;;2216643;66;1816;-19
2023/03/14 15:51:30;;;;;;;;;;;;;;;;;;2216669;66;1817;-19
2023/03/14 15:54:00;;;;;;;;;;;;;;;;;;2217112;66;1286;-19
2023/03/14 15:56:30;;;;;;;;;;;;;;;;;;2218727;59;1184;-19
2023/03/14 15:59:01;;;;;;;;;;;;;;;;;;2217526;66;1124;-19
2023/03/14 16:01:31;;;;;;;;;;;;;;;;;;2218405;66;1182;-19
2023/03/14 16:04:02;;;;;;;;;;;;;;;;;;2218550;66;1963;-19
2023/03/14 16:06:32;;;;;;;;;;;;;;;;;;2218407;66;1730;-19
2023/03/14 16:09:05;;;;;;;;;;;;;;;;;;2217821;66;1236;-19
2023/03/14 16:11:36;;;;;;;;;;;;;;;;;;2219748;58;1534;-19
2023/03/14 16:14:06;;;;;;;;;;;;;;;;;;2217649;66;1328;-19
2023/03/14 16:16:36;;;;;;;;;;;;;;;;;;2219674;66;1676;-19
2023/03/14 16:19:07;;;;;;;;;;;;;;;;;;2216916;66;1989;-19
2023/03/14 16:21:38;;;;;;;;;;;;;;;;;;2218945;66;1148;-19
2023/03/14 16:24:10;;;;;;;;;;;;;;;;;;2218358;66;1933;-19
2023/03/14 16:26:40;;;;;;;;;;;;;;;;;;2219783;66;1770;-19
2023/03/14 16:29:10;;;;;;;;;;;;;;;;;;2219566;66;1539;-19
2023/03/14 16:31:41;;;;;;;;;;;;;;;;;;2219386;66;1271;-19
2023/03/14 16:34:12;;;;;;;;;;;;;;;;;;2216752;58;1404;-19
2023/03/14 16:36:42;;;;;;;;;;;;;;;;;;2213339;59;1687;-19
2023/03/14 16:39:15;;;;;;;;;;;;;;;;;;2216998;66;1124;-17
2023/03/14 16:41:46;;;;;;;;;;;;;;;;;;2216446;66;1244;-18
2023/03/14 16:44:16;;;;;;;;;;;;;;;;;;2217209;66;1992;-17
2023/03/14 16:46:46;;;;;;;;;;;;;;;;;;2216916;66;1263;-17
2023/03/14 16:49:17;;;;;;;;;;;;;;;;;;2217208;66;1239;-16
2023/03/14 16:51:47;;;;;;;;;;;;;;;;;;2217304;66;1784;-17
2023/03/14 16:54:17;;;;;;;;;;;;;;;;;;2216246;66;1286;-17
2023/03/14 16:56:48;;;;;;;;;;;;;;;;;;2216901;66;1182;-17
2023/03/14 16:59:18;;;;;;;;;;;;;;;;;;2216962;66;1607;-17
2023/03/14 17:01:49;;;;;;;;;;;;;;;;;;2213003;59;1234;-17
2023/03/14 17:04:19;;;;;;;;;;;;;;;;;;2217093;66;1946;-17
2023/03/14 17:06:50;;;;;;;;;;;;;;;;;;2216453;66;1205;-17
2023/03/14 17:09:20;;;;;;;;;;;;;;;;;;2216544;66;1882;-17
2023/03/14 17:11:51;;;;;;;;;;;;;;;;;;2216542;66;1296;-17
2023/03/14 17:14:22;;;;;;;;;;;;;;;;;;2217008;66;1221;-17
2023/03/14 17:16:53;;;;;;;;;;;;;;;;;;2216954;66;1060;-17
2023/03/14 17:19:23;;;;;;;;;;;;;;;;;;2216670;59;2242;-17
2023/03/14 17:21:53;;;;;;;;;;;;;;;;;;2217421;66;1224;-17
2023/03/14 17:24:23;;;;;;;;;;;;;;;;;;2217536;59;1928;-17
2023/03/14 17:26:54;;;;;;;;;;;;;;;;;;2219358;66;1255;-17
2023/03/14 17:29:27;;;;;;;;;;;;;;;;;;2219783;59;1173;-17
2023/03/14 17:31:57;;;;;;;;;;;;;;;;;;2215701;66;1312;-17
2023/03/14 17:34:28;;;;;;;;;;;;;;;;;;2216498;66;1281;-16
2023/03/14 17:36:58;;;;;;;;;;;;;;;;;;2216402;66;1091;-17
2023/03/14 17:39:28;;;;;;;;;;;;;;;;;;2216427;66;1112;-17